Wood Dale, IL

6:39 PM CDT on August 30, 2015 (GMT -0500)
WDJH | | Change Station
CLOSE
Current Station
Personal Weather Station
Location: Wood Dale, IL
Elevation: 719 ft
Nearby Weather Stations

Elev 719 ft 41.98 °N, 87.98 °W | Updated 7 seconds ago

Partly Cloudy
Partly Cloudy
74.8 °F
Feels Like 76 °F
N
1.0
Wind Variable Wind from NE
Gusts 4.0 mph

Today
High -- | Low -- °F
--% Chance of Precip.
Yesterday
High -- | Low -- °F
Precip. -- in
6:15 AM 7:29 PM
Full, 98% visible
Pressure 30.01 in
Visibility 10.0 miles
Clouds Few 3200 ft
Heat Index 76 °F
Dew Point 66 °F
Humidity 74%
Rainfall 0.00 in
Snow Depth Not available.
UV 1 out of 12
Pollen 9.30 out of 12
Air Quality Not available.
Flu Activity Not available.
METAR KORD 302251Z 09004KT 10SM FEW032 23/18 A3002 RMK AO2 SLP160 T02330183
Pressure 30.01 in
Visibility 10.0 miles
Clouds Few 3200 ft
Heat Index 76 °F
Dew Point 66 °F
Humidity 74%
Rainfall 0.00 in
Snow Depth Not available.
UV 1 out of 12
Pollen 9.30 out of 12
Air Quality Not available.
Flu Activity Not available.
METAR KORD 302251Z 09004KT 10SM FEW032 23/18 A3002 RMK AO2 SLP160 T02330183

10-Day Weather Forecast

×

Almanac

Astronomy

Aug. 30, 2015 Rise Set
Actual Time
Civil Twilight
Nautical Twilight
Astronomical Twilight
Moon
Length of Visible Light
Length of Day
Tomorrow will be .
, % of the Moon is Illuminated

Today's Extremes

State Highs State Lows

Community

WunderPhotos

Upload Photos

1,851,090 photos uploaded!

WunderBlogs® & News

Nearby

Air Quality

  Air Quality AQ Index Pollutant
Not available.

Snow Depth

Station Depth Elevation

Earthquake Activity

City Distance Mag. Time & Date
Minimum magnitude displayed is 2.5.

Coastal Water Temperatures

Place Temperature

Stations

Nearby Weather Stations

Station Location Temp. Windchill Dew Point Humidity Wind Precip. Elev Updated Type